Time;durP1;ratioP1;P1;durP2;ratioP2;P2;SDS_P1;SDS_P2;PMS_P1;PMS_P2;Temp;Humidity;BMP_temperature;BMP_pressure;BME280_temperature;BME280_humidity;BME280_pressure;Samples;Min_cycle;Max_cycle;Signal;HPM_P1;HPM_P2
2023/08/12 00:01:10;;;;;;;11.02;5.50;;;;;;;24.89;54.40;100066.66;4971285;28;20449;-76
2023/08/12 00:03:36;;;;;;;10.57;5.35;;;;;;;24.85;54.79;100071.56;4971633;28;20130;-79
2023/08/12 00:06:05;;;;;;;8.00;4.82;;;;;;;24.82;55.12;100073.75;4971583;28;20058;-76
2023/08/12 00:08:31;;;;;;;10.48;6.15;;;;;;;24.78;55.32;100080.50;4971279;28;20057;-75
2023/08/12 00:10:58;;;;;;;11.52;5.35;;;;;;;24.74;55.44;100088.06;4957505;28;20113;-73
2023/08/12 00:13:24;;;;;;;7.40;5.30;;;;;;;24.70;55.81;100084.03;4957759;28;20148;-76
2023/08/12 00:15:53;;;;;;;10.38;5.20;;;;;;;24.66;55.76;100086.25;4974777;28;20495;-74
2023/08/12 00:18:19;;;;;;;11.02;5.30;;;;;;;24.63;55.90;100080.38;4974720;28;20054;-75
2023/08/12 00:20:46;;;;;;;10.82;5.25;;;;;;;24.60;56.35;100065.41;4974746;28;20051;-76
2023/08/12 00:23:13;;;;;;;10.20;5.15;;;;;;;24.58;56.36;100068.28;4974428;28;20055;-75
2023/08/12 00:25:39;;;;;;;10.15;5.20;;;;;;;24.56;56.54;100059.50;4957526;28;20082;-74
2023/08/12 00:28:06;;;;;;;7.30;4.85;;;;;;;24.55;56.90;100051.59;4974060;28;20775;-77
2023/08/12 00:30:32;;;;;;;11.00;5.40;;;;;;;24.52;56.70;100047.41;4974357;28;20051;-76
2023/08/12 00:32:59;;;;;;;12.88;6.82;;;;;;;24.49;56.79;100053.16;4974693;28;20138;-76
2023/08/12 00:35:25;;;;;;;9.85;5.85;;;;;;;24.47;56.88;100055.16;4974818;28;20051;-77
2023/08/12 00:37:52;;;;;;;11.23;6.53;;;;;;;24.44;57.20;100060.88;4974006;28;20396;-77
2023/08/12 00:40:18;;;;;;;8.30;6.15;;;;;;;24.38;57.08;100058.88;4974553;28;20069;-73
2023/08/12 00:42:46;;;;;;;10.40;5.72;;;;;;;24.33;57.38;100060.25;4974315;28;20051;-75
2023/08/12 00:45:13;;;;;;;10.90;6.63;;;;;;;24.29;57.42;100055.38;4974277;28;20069;-76
2023/08/12 00:47:41;;;;;;;7.90;5.93;;;;;;;24.23;57.64;100050.66;4973571;28;20073;-76
2023/08/12 00:50:11;;;;;;;8.27;6.28;;;;;;;24.18;58.33;100045.81;4974094;28;20098;-76
2023/08/12 00:52:39;;;;;;;9.73;7.20;;;;;;;24.12;58.41;100030.34;4974345;28;20054;-75
2023/08/12 00:55:05;;;;;;;10.20;6.97;;;;;;;24.06;58.52;100021.06;4956856;28;20134;-76
2023/08/12 00:57:32;;;;;;;9.65;6.90;;;;;;;24.03;58.77;100016.06;4973762;28;20066;-76
2023/08/12 00:59:59;;;;;;;9.80;6.53;;;;;;;23.98;59.07;100021.94;4973685;28;20491;-73
2023/08/12 01:02:26;;;;;;;8.68;6.65;;;;;;;23.95;58.89;100016.88;4973963;28;20491;-75
2023/08/12 01:04:53;;;;;;;9.55;7.50;;;;;;;23.91;59.72;100012.84;4973972;28;20051;-76
2023/08/12 01:07:20;;;;;;;9.40;7.43;;;;;;;23.88;59.82;100014.03;4973550;28;20047;-74
2023/08/12 01:09:47;;;;;;;10.68;7.82;;;;;;;23.84;59.97;100004.63;4973547;28;20046;-75
2023/08/12 01:12:21;;;;;;;9.95;7.15;;;;;;;23.81;60.67;100003.13;4973904;28;20051;-75
2023/08/12 01:15:07;;;;;;;12.35;7.38;;;;;;;23.74;61.27;100003.97;4974012;28;20047;-74
2023/08/12 01:17:37;;;;;;;8.82;6.40;;;;;;;23.76;60.18;99994.72;4973695;28;20054;-77
2023/08/12 01:20:09;;;;;;;8.10;5.93;;;;;;;23.73;60.39;99995.03;4972845;28;20512;-74
2023/08/12 01:22:40;;;;;;;10.23;7.18;;;;;;;23.68;61.66;99990.19;4973198;28;20471;-72
2023/08/12 01:25:08;;;;;;;9.02;6.72;;;;;;;23.67;60.45;99987.66;4956205;28;20055;-76
2023/08/12 01:27:37;;;;;;;10.32;7.00;;;;;;;23.64;60.99;99983.47;4973093;28;20500;-75
2023/08/12 01:30:05;;;;;;;8.18;6.75;;;;;;;23.62;60.70;99990.03;4973705;28;20047;-75
2023/08/12 01:32:38;;;;;;;10.57;7.25;;;;;;;23.59;62.20;99982.28;5252081;23;20667;-78
2023/08/12 01:35:29;;;;;;;10.40;6.97;;;;;;;23.54;61.87;99977.41;4973373;28;20055;-79
2023/08/12 01:37:58;;;;;;;10.07;6.90;;;;;;;23.57;61.79;99971.72;4972701;28;20079;-80
2023/08/12 01:40:25;;;;;;;8.48;7.38;;;;;;;23.57;61.00;99971.72;4973123;28;20051;-78
2023/08/12 01:42:52;;;;;;;8.43;6.93;;;;;;;23.56;61.42;99970.84;4972999;28;20058;-79
2023/08/12 01:45:19;;;;;;;10.02;6.82;;;;;;;23.58;61.62;99976.06;4973163;28;20074;-79
2023/08/12 01:47:45;;;;;;;9.10;6.70;;;;;;;23.59;61.74;99963.47;4972819;28;20069;-79
2023/08/12 01:50:12;;;;;;;6.97;5.75;;;;;;;23.59;61.85;99967.03;4972912;28;20054;-77
2023/08/12 01:52:38;;;;;;;7.10;5.75;;;;;;;23.59;62.01;99961.66;4972937;28;20147;-79
2023/08/12 01:55:05;;;;;;;8.20;6.47;;;;;;;23.61;61.73;99956.06;4972736;28;20057;-80
2023/08/12 01:57:31;;;;;;;6.80;4.60;;;;;;;23.62;61.98;99963.16;4972464;28;20202;-80
2023/08/12 01:59:58;;;;;;;7.25;5.40;;;;;;;23.63;62.12;99952.22;4972450;28;20491;-80
2023/08/12 02:02:24;;;;;;;7.95;5.63;;;;;;;23.65;62.07;99949.38;4972712;28;20117;-78
2023/08/12 02:04:51;;;;;;;7.28;5.07;;;;;;;23.66;61.95;99953.75;4972759;28;20086;-79
2023/08/12 02:07:17;;;;;;;7.47;5.03;;;;;;;23.66;62.27;99959.13;4972397;28;20418;-80
2023/08/12 02:09:44;;;;;;;6.47;4.85;;;;;;;23.67;61.89;99953.56;4972425;28;20051;-80
2023/08/12 02:12:10;;;;;;;6.63;5.13;;;;;;;23.67;62.02;99958.94;4954865;28;20051;-79
2023/08/12 02:14:36;;;;;;;7.03;4.63;;;;;;;23.68;61.92;99957.09;4972495;28;20126;-79
2023/08/12 02:17:06;;;;;;;7.40;4.70;;;;;;;23.67;62.31;99947.38;4955110;28;20085;-77
2023/08/12 02:19:33;;;;;;;6.18;4.75;;;;;;;23.66;62.19;99951.88;4972269;28;20470;-79
2023/08/12 02:22:01;;;;;;;5.20;4.18;;;;;;;23.67;62.40;99944.69;4972112;28;20046;-82
2023/08/12 02:24:28;;;;;;;7.53;4.57;;;;;;;23.67;62.35;99947.38;4972298;28;20058;-80
2023/08/12 02:26:55;;;;;;;4.40;3.95;;;;;;;23.65;62.03;99938.63;4972193;28;20042;-79
2023/08/12 02:29:21;;;;;;;6.32;4.53;;;;;;;23.65;62.42;99939.47;4972362;28;20051;-80
2023/08/12 02:31:48;;;;;;;5.60;4.05;;;;;;;23.64;62.09;99940.47;4971800;28;20097;-79
2023/08/12 02:34:14;;;;;;;5.38;3.97;;;;;;;23.60;62.20;99935.59;4972228;28;20121;-79
2023/08/12 02:36:41;;;;;;;5.97;3.60;;;;;;;23.59;62.25;99928.56;4972164;28;20138;-79
2023/08/12 02:39:07;;;;;;;6.43;3.67;;;;;;;23.56;62.48;99919.81;4972195;28;20047;-79
2023/08/12 02:41:33;;;;;;;6.18;3.55;;;;;;;23.55;62.70;99918.13;4955235;28;20060;-79
2023/08/12 02:44:00;;;;;;;5.88;4.00;;;;;;;23.54;62.82;99912.94;4971856;28;20519;-79
2023/08/12 02:46:26;;;;;;;8.57;3.97;;;;;;;23.55;62.99;99909.25;4971999;28;20051;-76
2023/08/12 02:48:53;;;;;;;4.63;3.25;;;;;;;23.55;62.44;99904.69;4971749;28;20129;-79
2023/08/12 02:51:19;;;;;;;4.18;2.60;;;;;;;23.56;62.43;99901.00;4954823;28;20093;-79
2023/08/12 02:53:46;;;;;;;6.47;3.55;;;;;;;23.58;62.80;99908.06;4971660;28;20054;-79
2023/08/12 02:56:13;;;;;;;4.22;2.83;;;;;;;23.60;62.27;99908.72;4972158;28;20082;-79
2023/08/12 02:58:39;;;;;;;4.03;2.60;;;;;;;23.61;62.34;99907.72;4971914;28;20055;-81
2023/08/12 03:01:06;;;;;;;3.75;2.38;;;;;;;23.60;62.42;99904.22;4972095;28;20388;-79
2023/08/12 03:03:32;;;;;;;3.63;2.60;;;;;;;23.61;62.63;99910.41;4954359;28;20054;-79
2023/08/12 03:05:59;;;;;;;4.45;2.70;;;;;;;23.62;62.42;99906.72;4954792;28;20049;-79
2023/08/12 03:08:25;;;;;;;5.88;2.65;;;;;;;23.63;62.45;99909.22;4971326;28;20071;-78
2023/08/12 03:11:02;;;;;;;4.57;3.03;;;;;;;23.59;62.81;99907.91;4972081;28;20138;-80
2023/08/12 03:13:29;;;;;;;5.07;2.85;;;;;;;23.62;62.45;99902.19;4954547;28;20057;-79
2023/08/12 03:15:56;;;;;;;5.13;2.90;;;;;;;23.61;62.77;99905.88;4972077;28;20051;-78
2023/08/12 03:18:22;;;;;;;4.43;2.70;;;;;;;23.60;62.46;99898.84;4971558;28;20057;-79
2023/08/12 03:20:49;;;;;;;6.32;3.50;;;;;;;23.59;62.65;99897.16;4971687;28;20133;-79
2023/08/12 03:23:15;;;;;;;5.78;3.45;;;;;;;23.59;62.72;99896.31;4971908;28;20147;-79
2023/08/12 03:25:42;;;;;;;7.00;3.88;;;;;;;23.58;62.68;99892.78;4971492;28;20130;-80
2023/08/12 03:28:08;;;;;;;7.45;4.38;;;;;;;23.57;62.97;99893.78;4954386;28;20090;-82
2023/08/12 03:30:35;;;;;;;6.07;4.10;;;;;;;23.56;62.81;99886.75;4971742;28;20051;-79
2023/08/12 03:33:02;;;;;;;9.23;4.32;;;;;;;23.55;62.83;99891.28;4971707;28;20122;-80
2023/08/12 03:35:29;;;;;;;4.82;3.95;;;;;;;23.54;63.01;99889.59;4971118;28;20050;-80
2023/08/12 03:37:55;;;;;;;6.28;4.47;;;;;;;23.52;63.28;99886.22;4971055;28;20130;-80
2023/08/12 03:40:22;;;;;;;4.68;4.18;;;;;;;23.52;63.24;99880.84;4954597;28;20051;-79
2023/08/12 03:42:48;;;;;;;6.07;4.97;;;;;;;23.50;63.09;99887.41;4971639;28;20083;-79
2023/08/12 03:45:15;;;;;;;6.57;5.07;;;;;;;23.48;63.43;99887.59;4974189;28;20385;-79
2023/08/12 03:47:41;;;;;;;7.50;5.57;;;;;;;23.46;63.11;99886.06;4974819;28;20141;-77
2023/08/12 03:50:08;;;;;;;7.82;5.90;;;;;;;23.44;63.53;99891.63;4975069;28;20518;-80
2023/08/12 03:52:34;;;;;;;8.10;5.88;;;;;;;23.43;63.76;99895.31;4975238;28;20050;-78
2023/08/12 03:55:01;;;;;;;9.50;6.63;;;;;;;23.40;63.99;99891.09;4974923;28;20133;-80
2023/08/12 03:57:28;;;;;;;8.90;5.95;;;;;;;23.38;63.93;99894.97;4974815;28;20054;-78
2023/08/12 03:59:54;;;;;;;7.32;6.60;;;;;;;23.37;64.18;99898.69;4974874;28;20055;-79
2023/08/12 04:02:21;;;;;;;8.32;6.95;;;;;;;23.36;64.10;99895.13;4974850;28;20069;-79
2023/08/12 04:04:48;;;;;;;9.15;7.35;;;;;;;23.35;64.40;99888.09;4974969;28;20069;-79
2023/08/12 04:07:14;;;;;;;9.93;7.85;;;;;;;23.34;64.63;99891.78;4957451;28;20101;-79
2023/08/12 04:09:41;;;;;;;10.85;8.23;;;;;;;23.35;64.46;99889.94;4957713;28;20133;-80
2023/08/12 04:12:07;;;;;;;9.73;7.93;;;;;;;23.34;64.48;99891.78;4974875;28;20094;-80
2023/08/12 04:14:34;;;;;;;10.23;8.13;;;;;;;23.32;64.62;99885.69;4957904;28;20086;-80
2023/08/12 04:17:00;;;;;;;8.02;7.20;;;;;;;23.32;64.53;99892.94;4974213;28;20396;-79
2023/08/12 04:19:27;;;;;;;10.65;8.57;;;;;;;23.29;64.58;99892.25;4975065;28;20069;-80
2023/08/12 04:21:54;;;;;;;8.90;7.85;;;;;;;23.28;64.60;99893.28;4975023;28;20062;-81
2023/08/12 04:24:20;;;;;;;10.27;8.63;;;;;;;23.27;64.88;99894.28;4974770;28;20533;-80
2023/08/12 04:26:46;;;;;;;10.40;8.30;;;;;;;23.25;65.09;99893.59;4974408;28;20123;-79
2023/08/12 04:29:13;;;;;;;10.07;8.95;;;;;;;23.24;64.88;99889.25;4974492;28;20126;-79
2023/08/12 04:31:40;;;;;;;11.00;9.40;;;;;;;23.22;65.40;99890.41;4974397;28;20570;-79
2023/08/12 04:34:07;;;;;;;10.50;9.35;;;;;;;23.21;65.03;99886.06;4957651;28;20093;-78
2023/08/12 04:36:33;;;;;;;11.02;9.35;;;;;;;23.20;65.05;99885.22;4974330;28;20101;-79
2023/08/12 04:39:00;;;;;;;10.80;9.48;;;;;;;23.17;65.02;99883.69;4957361;28;20094;-77
2023/08/12 04:41:26;;;;;;;12.13;10.82;;;;;;;23.14;65.10;99884.03;4974604;28;20424;-78
2023/08/12 04:43:53;;;;;;;14.00;10.52;;;;;;;23.14;65.50;99880.53;4974411;28;20054;-79
2023/08/12 04:46:19;;;;;;;16.92;12.75;;;;;;;23.12;65.46;99879.84;4973998;28;20089;-79
2023/08/12 04:48:46;;;;;;;18.27;12.82;;;;;;;23.09;65.55;99881.00;4973991;28;20051;-80
2023/08/12 04:51:13;;;;;;;14.68;12.52;;;;;;;23.06;65.65;99875.13;4974230;28;20527;-79
2023/08/12 04:53:39;;;;;;;15.82;13.02;;;;;;;23.03;65.85;99871.78;4957084;28;20051;-79
2023/08/12 04:56:06;;;;;;;20.42;14.27;;;;;;;23.02;66.09;99867.41;4956901;28;20105;-80
2023/08/12 04:58:32;;;;;;;16.27;14.40;;;;;;;23.00;66.22;99866.75;4972975;28;20503;-79
2023/08/12 05:01:00;;;;;;;16.58;14.80;;;;;;;23.00;66.75;99865.91;4973781;28;20411;-79
2023/08/12 05:03:27;;;;;;;21.40;15.45;;;;;;;23.00;66.47;99863.22;4974218;28;20141;-77
2023/08/12 05:05:54;;;;;;;16.65;14.63;;;;;;;23.00;66.49;99861.38;4974132;28;20138;-79
2023/08/12 05:08:21;;;;;;;21.77;16.35;;;;;;;23.00;66.76;99855.16;4973787;28;20125;-79
2023/08/12 05:10:48;;;;;;;18.23;14.68;;;;;;;23.01;66.74;99851.47;4973739;28;20089;-79
2023/08/12 05:13:15;;;;;;;17.75;15.65;;;;;;;23.00;66.94;99844.44;4973784;28;20047;-82
2023/08/12 05:15:45;;;;;;;16.33;14.55;;;;;;;22.99;67.29;99843.56;4973669;28;20881;-81
2023/08/12 05:18:12;;;;;;;15.48;13.60;;;;;;;22.99;66.65;99846.25;4956460;28;20146;-79
2023/08/12 05:20:41;;;;;;;16.65;14.20;;;;;;;23.00;66.95;99837.22;4973513;28;20082;-79
2023/08/12 05:23:12;;;;;;;17.73;15.85;;;;;;;23.02;66.90;99837.03;4973847;28;20046;-79
2023/08/12 05:25:39;;;;;;;18.50;14.80;;;;;;;23.05;67.28;99839.38;4973549;28;20082;-79
2023/08/12 05:28:06;;;;;;;14.90;13.40;;;;;;;23.04;67.26;99835.03;4956024;28;20072;-78
2023/08/12 05:30:32;;;;;;;16.00;14.05;;;;;;;23.07;67.25;99839.22;4956266;28;20125;-79
2023/08/12 05:32:58;;;;;;;16.55;14.05;;;;;;;23.10;67.13;99841.59;4973614;28;20093;-76
2023/08/12 05:35:25;;;;;;;17.35;14.68;;;;;;;23.11;67.64;99844.09;4973488;28;20054;-79
2023/08/12 05:37:52;;;;;;;16.52;14.38;;;;;;;23.13;67.41;99838.53;4973076;28;20507;-79
2023/08/12 05:40:19;;;;;;;15.73;14.02;;;;;;;23.16;67.07;99840.91;4972888;28;20123;-77
2023/08/12 05:42:45;;;;;;;15.25;13.65;;;;;;;23.17;67.09;99830.00;4971642;28;20047;-78
2023/08/12 05:45:12;;;;;;;14.18;12.75;;;;;;;23.18;67.24;99828.16;4954803;28;20424;-78
2023/08/12 05:47:38;;;;;;;14.93;13.32;;;;;;;23.19;67.26;99831.66;4972515;28;20050;-78
2023/08/12 05:50:06;;;;;;;15.18;12.95;;;;;;;23.20;67.26;99836.03;4956203;28;20381;-79
2023/08/12 05:52:33;;;;;;;15.43;13.88;;;;;;;23.22;67.10;99820.59;4972737;28;20562;-81
2023/08/12 05:54:59;;;;;;;19.15;14.38;;;;;;;23.21;67.37;99821.63;4972885;28;20047;-82
2023/08/12 05:57:26;;;;;;;18.35;15.52;;;;;;;23.22;67.24;99818.75;4954901;28;20086;-80
2023/08/12 05:59:55;;;;;;;19.92;15.88;;;;;;;23.22;67.55;99821.44;4971331;28;20054;-79
2023/08/12 06:02:21;;;;;;;18.00;14.18;;;;;;;23.23;67.55;99817.75;4971334;28;20141;-80
2023/08/12 06:04:48;;;;;;;17.88;15.85;;;;;;;23.23;67.61;99817.75;4971250;28;20055;-79
2023/08/12 06:07:15;;;;;;;20.75;17.05;;;;;;;23.25;67.59;99821.09;4970322;28;20483;-80
2023/08/12 06:09:41;;;;;;;21.40;18.48;;;;;;;23.27;67.98;99813.72;4971818;28;20830;-80
2023/08/12 06:12:08;;;;;;;25.83;20.27;;;;;;;23.29;67.67;99816.25;4971640;28;20051;-80
2023/08/12 06:14:38;;;;;;;28.95;21.48;;;;;;;23.32;67.86;99823.13;4973081;28;20521;-81
2023/08/12 06:17:05;;;;;;;24.65;19.65;;;;;;;23.35;67.57;99820.94;4955144;28;20459;-80
2023/08/12 06:19:32;;;;;;;29.27;21.75;;;;;;;23.37;67.63;99818.09;4972778;28;20105;-80
2023/08/12 06:21:59;;;;;;;24.65;20.90;;;;;;;23.38;67.56;99811.72;4972115;28;20051;-80
2023/08/12 06:24:25;;;;;;;26.15;20.88;;;;;;;23.38;67.99;99815.25;4971921;28;20054;-79
2023/08/12 06:26:52;;;;;;;26.35;21.55;;;;;;;23.39;67.91;99808.84;4972545;28;20097;-79
2023/08/12 06:29:18;;;;;;;28.58;21.15;;;;;;;23.41;67.88;99811.38;4972432;28;20129;-78
2023/08/12 06:31:45;;;;;;;27.70;22.85;;;;;;;23.42;68.08;99805.00;4971935;28;20051;-79
2023/08/12 06:34:11;;;;;;;26.02;22.08;;;;;;;23.45;68.00;99803.81;4972438;28;20061;-81
2023/08/12 06:36:38;;;;;;;27.52;23.35;;;;;;;23.47;67.91;99799.13;4972186;28;20419;-78
2023/08/12 06:39:04;;;;;;;27.55;23.42;;;;;;;23.50;68.47;99793.38;4972084;28;20464;-78
2023/08/12 06:41:31;;;;;;;26.73;21.77;;;;;;;23.52;68.23;99797.56;4954897;28;20547;-79
2023/08/12 06:43:57;;;;;;;25.75;22.50;;;;;;;23.55;67.93;99791.88;4972441;28;20121;-79
2023/08/12 06:46:24;;;;;;;23.63;21.08;;;;;;;23.60;68.37;99787.81;4972060;28;20500;-79
2023/08/12 06:48:50;;;;;;;24.27;19.70;;;;;;;23.64;68.01;99792.69;4971945;28;20102;-79
2023/08/12 06:51:17;;;;;;;27.75;20.42;;;;;;;23.69;68.18;99781.41;4972251;28;20047;-79
2023/08/12 06:53:43;;;;;;;23.38;19.85;;;;;;;23.73;68.28;99780.06;4971895;28;20055;-77
2023/08/12 06:56:10;;;;;;;22.45;19.77;;;;;;;23.79;68.38;99774.00;4971880;28;20470;-81
2023/08/12 06:58:36;;;;;;;20.52;18.33;;;;;;;23.85;68.10;99777.81;4971372;28;20057;-79
2023/08/12 07:01:03;;;;;;;24.17;18.40;;;;;;;23.90;67.72;99780.00;4971507;28;20058;-81
2023/08/12 07:03:30;;;;;;;21.08;17.60;;;;;;;23.94;67.88;99773.25;4955009;28;20090;-80
2023/08/12 07:05:57;;;;;;;20.30;17.13;;;;;;;24.00;67.45;99780.59;4954692;28;20051;-80
2023/08/12 07:08:24;;;;;;;20.92;17.33;;;;;;;24.03;67.40;99788.34;4971938;28;20113;-80
2023/08/12 07:10:50;;;;;;;20.85;16.77;;;;;;;24.06;67.38;99784.44;4971648;28;20046;-80
2023/08/12 07:13:17;;;;;;;18.00;16.13;;;;;;;24.08;67.20;99783.25;4970971;28;20046;-79
2023/08/12 07:15:43;;;;;;;20.23;16.17;;;;;;;24.12;67.24;99783.78;4953862;28;20137;-82
2023/08/12 07:18:10;;;;;;;17.73;14.73;;;;;;;24.13;66.98;99776.53;4970877;28;20051;-80
2023/08/12 07:20:37;;;;;;;20.02;16.13;;;;;;;24.13;67.05;99784.63;4974260;28;20500;-79
2023/08/12 07:23:04;;;;;;;15.80;13.93;;;;;;;24.14;66.83;99780.94;4958906;28;20055;-79
2023/08/12 07:25:30;;;;;;;16.77;15.02;;;;;;;24.14;66.72;99780.94;4958810;28;20098;-79
2023/08/12 07:27:58;;;;;;;16.75;13.95;;;;;;;24.14;66.74;99780.94;4975457;28;20085;-79
2023/08/12 07:30:24;;;;;;;22.15;14.50;;;;;;;24.12;66.82;99783.78;4975718;28;20105;-80
2023/08/12 07:32:51;;;;;;;17.25;14.85;;;;;;;24.12;66.70;99778.41;4958284;28;20054;-76
2023/08/12 07:35:17;;;;;;;18.98;14.77;;;;;;;24.11;66.99;99783.97;4958380;28;20058;-79
2023/08/12 07:37:44;;;;;;;17.02;13.90;;;;;;;24.10;67.03;99779.56;4975333;28;20090;-79
2023/08/12 07:40:10;;;;;;;15.88;13.35;;;;;;;24.08;66.76;99779.75;4975384;28;20082;-79
2023/08/12 07:42:37;;;;;;;16.63;13.30;;;;;;;24.06;67.16;99779.91;4956157;29;20051;-79
2023/08/12 07:45:05;;;;;;;15.20;12.85;;;;;;;24.06;67.03;99779.06;4955294;29;20488;-79
2023/08/12 07:47:31;;;;;;;14.70;12.43;;;;;;;24.04;66.94;99781.94;4955717;29;20672;-79
2023/08/12 07:49:58;;;;;;;16.40;13.40;;;;;;;24.03;66.96;99779.44;4956329;29;20058;-79
2023/08/12 07:52:25;;;;;;;18.42;14.77;;;;;;;24.02;67.35;99780.44;4971499;28;20112;-79
2023/08/12 07:54:51;;;;;;;15.40;13.57;;;;;;;24.00;67.25;99783.28;4974917;28;20125;-79
2023/08/12 07:57:20;;;;;;;16.17;14.00;;;;;;;23.99;67.40;99762.00;4975035;28;20101;-78
2023/08/12 07:59:46;;;;;;;16.45;13.38;;;;;;;23.98;67.58;99763.81;4975140;28;20570;-80
2023/08/12 08:02:13;;;;;;;16.70;14.57;;;;;;;23.97;67.26;99769.38;4957839;28;20054;-79
2023/08/12 08:04:40;;;;;;;17.65;13.70;;;;;;;23.97;67.61;99766.69;4975439;28;20043;-79
2023/08/12 08:07:06;;;;;;;15.38;12.60;;;;;;;23.96;67.87;99768.56;4974988;28;20051;-80
2023/08/12 08:09:33;;;;;;;14.00;12.55;;;;;;;23.97;67.75;99764.84;4975039;28;20054;-79
2023/08/12 08:12:00;;;;;;;13.82;12.45;;;;;;;23.96;67.99;99763.19;4957681;28;20047;-78
2023/08/12 08:14:27;;;;;;;11.60;10.32;;;;;;;23.97;68.03;99762.16;4975161;28;20051;-79
2023/08/12 08:16:53;;;;;;;15.07;11.13;;;;;;;23.98;67.99;99760.28;4957654;28;20063;-80
2023/08/12 08:19:20;;;;;;;14.27;11.82;;;;;;;24.01;67.71;99759.94;4974714;28;20505;-79
2023/08/12 08:21:47;;;;;;;16.08;11.20;;;;;;;24.02;67.66;99769.69;4974715;28;20777;-79
2023/08/12 08:24:13;;;;;;;10.70;9.68;;;;;;;24.02;67.86;99772.38;4957754;28;20141;-79
2023/08/12 08:26:45;;;;;;;13.00;11.60;;;;;;;24.00;67.79;99767.16;4974630;28;20054;-77
2023/08/12 08:29:12;;;;;;;11.57;10.48;;;;;;;23.99;67.89;99768.19;4974529;28;20097;-79
2023/08/12 08:31:39;;;;;;;11.63;10.52;;;;;;;23.99;67.95;99767.38;4974474;28;20066;-80
2023/08/12 08:34:06;;;;;;;11.23;9.70;;;;;;;23.96;67.86;99763.19;4974649;28;20056;-79
2023/08/12 08:36:33;;;;;;;13.70;10.68;;;;;;;23.97;67.44;99767.53;4974617;28;20570;-79
2023/08/12 08:38:59;;;;;;;11.63;10.43;;;;;;;23.94;67.51;99755.28;4974378;28;20050;-80
2023/08/12 08:41:30;;;;;;;12.75;10.50;;;;;;;23.92;67.69;99734.97;4957308;28;20055;-79
2023/08/12 08:44:05;;;;;;;11.95;10.73;;;;;;;23.90;68.62;99719.00;4957400;28;20075;-80
2023/08/12 08:46:31;;;;;;;10.95;9.77;;;;;;;23.92;67.75;99700.03;4973327;28;20407;-79
2023/08/12 08:49:00;;;;;;;11.32;9.68;;;;;;;23.91;68.26;99701.00;4974229;28;20051;-78
2023/08/12 08:51:30;;;;;;;9.60;8.57;;;;;;;23.88;68.57;99717.53;4974413;28;20046;-79
2023/08/12 08:53:57;;;;;;;10.40;9.38;;;;;;;23.87;68.45;99751.63;4956839;28;20503;-78
2023/08/12 08:56:32;;;;;;;8.45;7.57;;;;;;;23.85;68.61;99745.56;4974182;28;20047;-79
2023/08/12 08:58:59;;;;;;;11.57;9.00;;;;;;;23.84;68.15;99722.38;4956612;28;20101;-78
2023/08/12 09:01:28;;;;;;;8.43;7.63;;;;;;;23.81;68.49;99690.50;4974311;28;20051;-79
2023/08/12 09:03:56;;;;;;;6.35;5.75;;;;;;;23.79;68.63;99666.50;4974184;28;20051;-79
2023/08/12 09:06:24;;;;;;;6.28;5.63;;;;;;;23.73;68.69;99666.38;4974069;28;20752;-79
2023/08/12 09:08:52;;;;;;;9.85;5.72;;;;;;;23.68;68.82;99686.53;4973772;28;20062;-78
2023/08/12 09:11:19;;;;;;;5.15;4.65;;;;;;;23.64;68.96;99695.97;4957061;28;20062;-79
2023/08/12 09:13:47;;;;;;;5.05;4.40;;;;;;;23.61;69.05;99709.72;4974000;28;20389;-79
2023/08/12 09:16:14;;;;;;;6.28;3.92;;;;;;;23.60;69.20;99707.22;4974144;28;20059;-79
2023/08/12 09:18:44;;;;;;;4.10;3.70;;;;;;;23.58;69.82;99709.25;4956539;28;20051;-79
2023/08/12 09:21:11;;;;;;;3.75;3.38;;;;;;;23.58;69.40;99722.69;4973631;28;20496;-76
2023/08/12 09:23:39;;;;;;;6.25;3.03;;;;;;;23.58;69.31;99718.13;4974065;28;20058;-79
2023/08/12 09:26:18;;;;;;;3.42;3.10;;;;;;;23.53;70.25;99715.97;4974342;28;20551;-80
2023/08/12 09:28:45;;;;;;;3.35;2.53;;;;;;;23.59;69.47;99710.91;4973886;28;20428;-79
2023/08/12 09:31:32;;;;;;;2.78;2.50;;;;;;;23.55;70.75;99721.19;4974000;28;20051;-79
2023/08/12 09:34:04;;;;;;;3.35;2.95;;;;;;;23.60;70.67;99713.44;4974606;28;20057;-79
2023/08/12 09:36:30;;;;;;;3.10;2.30;;;;;;;23.65;69.84;99707.53;4973911;28;20090;-79
2023/08/12 09:39:00;;;;;;;2.33;2.13;;;;;;;23.67;70.14;99710.88;4973843;28;20058;-79
2023/08/12 09:41:30;;;;;;;2.22;2.05;;;;;;;23.69;70.20;99708.84;4972736;28;20102;-79
2023/08/12 09:44:04;;;;;;;2.35;2.17;;;;;;;23.72;70.88;99707.66;4957250;28;20098;-79
2023/08/12 09:46:33;;;;;;;2.33;2.13;;;;;;;23.75;70.65;99718.06;4973899;28;20051;-79
2023/08/12 09:48:59;;;;;;;2.63;2.20;;;;;;;23.80;69.94;99704.94;4973698;28;20134;-81
2023/08/12 09:51:27;;;;;;;2.22;1.92;;;;;;;23.84;70.28;99702.75;4973472;28;20074;-80
2023/08/12 09:53:53;;;;;;;1.77;1.65;;;;;;;23.87;70.35;99705.91;4973601;28;20419;-80
2023/08/12 09:56:26;;;;;;;1.67;1.58;;;;;;;23.90;70.35;99704.72;4973620;28;20550;-79
2023/08/12 09:58:53;;;;;;;1.70;1.60;;;;;;;23.94;70.13;99698.84;4973166;28;20046;-79
2023/08/12 10:01:23;;;;;;;1.98;1.77;;;;;;;23.97;69.75;99692.25;4937461;29;20130;-80
2023/08/12 10:03:53;;;;;;;1.80;1.70;;;;;;;23.99;69.70;99695.59;4954568;29;20055;-78
2023/08/12 10:06:20;;;;;;;2.40;2.20;;;;;;;24.03;69.75;99696.09;4954239;29;20055;-76
2023/08/12 10:08:48;;;;;;;2.13;2.00;;;;;;;24.05;69.96;99694.06;4953799;29;20055;-79
2023/08/12 10:11:15;;;;;;;2.20;2.00;;;;;;;24.07;70.02;99694.72;4970523;28;20585;-77
2023/08/12 10:13:42;;;;;;;2.17;2.00;;;;;;;24.10;69.88;99688.16;4973292;28;20390;-79
2023/08/12 10:16:09;;;;;;;2.35;1.80;;;;;;;24.12;69.80;99687.00;4973651;28;20113;-78
2023/08/12 10:18:38;;;;;;;2.08;1.90;;;;;;;24.12;69.92;99686.16;4955887;28;20106;-80
2023/08/12 10:21:09;;;;;;;2.20;2.00;;;;;;;24.13;69.68;99687.81;4972053;28;20126;-79
2023/08/12 10:23:35;;;;;;;2.40;2.20;;;;;;;24.14;69.57;99686.81;4972713;28;20055;-80
2023/08/12 10:26:14;;;;;;;2.80;2.60;;;;;;;24.13;69.82;99687.81;4972926;28;20051;-80
2023/08/12 10:28:40;;;;;;;2.60;2.40;;;;;;;24.15;69.30;99677.72;4972647;28;20500;-80
2023/08/12 10:31:07;;;;;;;3.33;2.53;;;;;;;24.15;69.53;99675.84;4955557;28;20077;-79
2023/08/12 10:33:38;;;;;;;3.28;2.97;;;;;;;24.12;69.73;99680.75;4972928;28;20039;-80
2023/08/12 10:36:05;;;;;;;3.50;3.20;;;;;;;24.12;69.47;99678.06;4972815;28;20058;-79
2023/08/12 10:38:33;;;;;;;3.08;2.78;;;;;;;24.09;69.23;99676.56;4972449;28;20050;-80
2023/08/12 10:41:15;;;;;;;3.65;3.35;;;;;;;24.03;70.08;99685.34;4972735;28;20122;-79
2023/08/12 10:43:53;;;;;;;3.67;3.38;;;;;;;24.02;69.93;99671.06;4972827;28;20141;-80
2023/08/12 10:46:32;;;;;;;4.22;3.65;;;;;;;24.02;70.23;99676.44;4972755;28;20069;-79
2023/08/12 10:49:10;;;;;;;4.28;3.80;;;;;;;23.98;70.30;99669.72;4972547;28;20082;-79
2023/08/12 10:51:39;;;;;;;5.15;4.65;;;;;;;24.00;70.13;99681.13;4972239;28;20514;-79
2023/08/12 10:54:16;;;;;;;5.32;4.82;;;;;;;23.95;70.33;99675.44;4972242;28;20043;-79
2023/08/12 10:57:02;;;;;;;5.05;4.60;;;;;;;23.92;70.57;99675.84;4972425;28;20554;-76
2023/08/12 10:59:44;;;;;;;5.15;4.65;;;;;;;23.92;70.90;99670.47;4972744;28;20097;-79
2023/08/12 11:02:36;;;;;;;6.93;5.30;;;;;;;23.90;70.41;99667.94;4971992;28;20058;-79
2023/08/12 11:05:08;;;;;;;6.45;5.72;;;;;;;23.92;69.93;99671.28;4954740;28;20129;-79
2023/08/12 11:07:40;;;;;;;9.00;5.43;;;;;;;23.89;70.60;99673.50;4970043;28;20125;-79
2023/08/12 11:10:26;;;;;;;6.28;5.57;;;;;;;23.86;70.85;99663.94;4971823;28;20055;-80
2023/08/12 11:12:56;;;;;;;5.55;5.00;;;;;;;23.87;70.32;99662.06;4972528;28;20051;-78
2023/08/12 11:15:41;;;;;;;6.57;5.38;;;;;;;23.83;71.40;99656.22;4972563;28;20133;-82
2023/08/12 11:18:16;;;;;;;6.15;5.40;;;;;;;23.86;71.28;99650.50;4972386;28;20082;-79
2023/08/12 11:20:43;;;;;;;5.47;4.97;;;;;;;23.90;70.84;99646.44;4972596;28;20102;-81
2023/08/12 11:23:11;;;;;;;5.72;5.13;;;;;;;23.93;71.14;99645.25;4955346;28;20138;-80
2023/08/12 11:25:40;;;;;;;8.90;5.55;;;;;;;23.95;71.51;99646.72;4937170;29;20560;-79
2023/08/12 11:28:07;;;;;;;4.93;4.50;;;;;;;24.02;71.79;99648.69;4935712;29;20055;-79
2023/08/12 11:30:36;;;;;;;4.72;4.30;;;;;;;24.05;71.58;99651.88;4953235;29;20048;-80